map of PBR home
PBR - Airport
Location
City:  Puerto Barrios, Izabal, Guatemala
ICAO:MGPB
IATA:PBR

Details
Type:Airport (Aerodrome, Airfield)
Use:Public/Civil, Military
Latitude:1543'51"N (15.730878)
Longitude:8835'02"W (-88.583766)
Datum:WGS 1984
Elevation:33 ft (10 m)
Variation:0.31W (WMM2015v2 magnetic declination)
-0.12 annual change
Runways:1
Longest:8880 × 110 ft (2707 × 33.5 m), paved

Time
Time Zone:UTC-6
Local Time:

Weather
METAR:MGPB 041400Z 00000KT 9999 FEW018 SCT080 24/23 Q1013 A2991
TAF:MGPB 031700Z 0318/0418 05008KT 9999 FEW018 TX31/0320Z TN20/0412Z
TEMPO 0320/0400 SCT020
BECMG 0400/0402 00000KT CAVOK
TEMPO 0408/0414 SCT016
BECMG 0416/1418 05008KT FEW018

Related Locations
Nearby:
Farthest:CCK: 12005 mi / 19321 km
West Island (Pulau Panjang) [Cocos (Keeling) Islands], CC

Find:

   beyond  
but within

Other Information
Maps:
NOTAMs:
Links:
Sources:

  
  • flag of Guatemala
  • flag of Izabal
  

Sectional Chart

Flight Planning
at skyvector.com

Satellite Image

Google Maps Satellite view

 

Copyright © 2004-2019 Karl L. Swartz. All rights reserved.
The Great Circle Mapper name and logo are trademarks of the Great Circle Mapper.
All other trademarks mentioned herein belong to their respective owners.
Please see credits for attibutions and further copyright information.

  Follow gcmap on Facebook Follow gcmap on Twitter GCmap on LinkedIn

hCard Microformat

Geo Microformat